createdAt,value
2023-07-16T00:01:59.738Z,66.09
2023-07-16T00:04:26.584Z,66.19
2023-07-16T00:06:53.453Z,66.04
2023-07-16T00:09:20.152Z,66.36
2023-07-16T00:11:47.022Z,66.70
2023-07-16T00:14:13.980Z,66.83
2023-07-16T00:16:40.701Z,67.09
2023-07-16T00:19:07.558Z,67.09
2023-07-16T00:21:34.381Z,67.41
2023-07-16T00:24:01.170Z,67.88
2023-07-16T00:26:28.166Z,67.97
2023-07-16T00:28:55.319Z,68.00
2023-07-16T00:31:22.410Z,67.73
2023-07-16T00:33:49.205Z,67.61
2023-07-16T00:36:16.156Z,67.35
2023-07-16T00:38:47.577Z,67.44
2023-07-16T00:41:15.574Z,67.46
2023-07-16T00:43:42.744Z,67.77
2023-07-16T00:46:09.959Z,67.99
2023-07-16T00:48:36.982Z,68.06
2023-07-16T00:51:04.011Z,68.41
2023-07-16T00:53:31.259Z,68.37
2023-07-16T00:55:58.248Z,68.63
2023-07-16T00:58:25.071Z,68.65
2023-07-16T01:00:51.915Z,68.74
2023-07-16T01:03:18.656Z,69.11
2023-07-16T01:06:00.467Z,69.12
2023-07-16T01:08:36.606Z,69.11
2023-07-16T01:11:07.031Z,69.03
2023-07-16T01:13:35.141Z,69.32
2023-07-16T01:16:02.258Z,69.54
2023-07-16T01:18:29.783Z,69.42
2023-07-16T01:20:56.755Z,69.60
2023-07-16T01:23:23.489Z,69.90
2023-07-16T01:26:00.965Z,70.27
2023-07-16T01:28:27.640Z,70.50
2023-07-16T01:30:56.780Z,70.61
2023-07-16T01:33:23.769Z,71.01
2023-07-16T01:35:51.787Z,71.06
2023-07-16T01:38:19.968Z,71.27
2023-07-16T01:40:47.101Z,71.59
2023-07-16T01:43:13.910Z,71.99
2023-07-16T01:45:40.764Z,72.42
2023-07-16T01:48:27.963Z,72.83
2023-07-16T01:50:54.828Z,73.31
2023-07-16T01:53:21.876Z,73.88
2023-07-16T01:55:48.780Z,74.20
2023-07-16T01:58:15.533Z,74.53
2023-07-16T02:00:42.199Z,74.76
2023-07-16T02:03:08.885Z,75.13
2023-07-16T02:05:35.509Z,75.41
2023-07-16T02:08:02.150Z,75.66
2023-07-16T02:10:33.253Z,75.55
2023-07-16T02:12:59.878Z,75.60
2023-07-16T02:15:26.472Z,75.79
2023-07-16T02:17:53.115Z,76.11
2023-07-16T02:20:19.801Z,76.09
2023-07-16T02:22:46.961Z,76.30
2023-07-16T02:25:13.637Z,76.63
2023-07-16T02:27:40.174Z,77.11
2023-07-16T02:30:07.869Z,77.40
2023-07-16T02:32:34.993Z,77.66
2023-07-16T02:35:02.266Z,77.86
2023-07-16T02:37:28.974Z,78.11
2023-07-16T02:39:57.550Z,78.22
2023-07-16T02:42:25.179Z,78.42
2023-07-16T02:44:51.855Z,79.15
2023-07-16T02:47:18.437Z,79.36
2023-07-16T02:49:45.272Z,79.36
2023-07-16T02:52:11.855Z,79.27
2023-07-16T02:54:38.537Z,78.93
2023-07-16T02:57:06.274Z,79.30
2023-07-16T02:59:32.878Z,79.45
2023-07-16T03:01:59.635Z,79.75
2023-07-16T03:04:26.279Z,80.17
2023-07-16T03:06:52.905Z,80.71
2023-07-16T03:09:19.547Z,80.78
2023-07-16T03:11:46.145Z,81.08
2023-07-16T03:14:12.910Z,81.41
2023-07-16T03:16:39.935Z,81.54
2023-07-16T03:19:07.857Z,81.25
2023-07-16T03:21:34.427Z,81.07
2023-07-16T03:24:01.029Z,80.83
2023-07-16T03:26:27.693Z,80.34
2023-07-16T03:28:54.335Z,78.15
2023-07-16T03:31:20.991Z,76.11
2023-07-16T03:33:49.197Z,75.20
2023-07-16T03:36:16.553Z,72.85
2023-07-16T03:38:43.356Z,70.50
2023-07-16T03:41:09.942Z,68.47
2023-07-16T03:43:36.714Z,66.33
2023-07-16T03:46:15.749Z,62.92
2023-07-16T03:48:42.683Z,61.22
2023-07-16T03:51:09.368Z,59.04
2023-07-16T03:53:35.920Z,56.70
2023-07-16T03:56:02.514Z,54.09
2023-07-16T03:58:30.461Z,52.64
2023-07-16T04:00:57.222Z,50.72
2023-07-16T04:03:24.372Z,49.19
2023-07-16T04:05:51.020Z,45.91
2023-07-16T04:08:17.725Z,43.66
2023-07-16T04:10:44.257Z,43.46
2023-07-16T04:13:10.784Z,42.46
2023-07-16T04:15:37.399Z,42.10
2023-07-16T04:18:05.172Z,44.34
2023-07-16T04:20:31.915Z,44.99
2023-07-16T04:22:58.661Z,44.57
2023-07-16T04:25:25.511Z,43.86
2023-07-16T04:27:52.140Z,42.22
2023-07-16T04:30:19.315Z,43.60
2023-07-16T04:32:45.881Z,43.54
2023-07-16T04:35:12.455Z,43.15
2023-07-16T04:37:39.073Z,41.98
2023-07-16T04:40:06.136Z,41.19
2023-07-16T04:42:32.772Z,40.74
2023-07-16T04:44:59.508Z,41.87
2023-07-16T04:47:26.130Z,39.29
2023-07-16T04:49:52.720Z,39.11
2023-07-16T04:52:19.283Z,38.66
2023-07-16T04:54:45.854Z,38.86
2023-07-16T04:57:12.387Z,39.12
2023-07-16T04:59:38.986Z,36.82
2023-07-16T05:02:06.540Z,34.10
2023-07-16T05:04:33.897Z,33.74
2023-07-16T05:07:01.814Z,31.94
2023-07-16T05:09:28.441Z,31.47
2023-07-16T05:11:54.992Z,31.39
2023-07-16T05:14:21.573Z,31.65
2023-07-16T05:16:48.202Z,30.83
2023-07-16T05:19:14.892Z,30.87
2023-07-16T05:21:41.465Z,30.38
2023-07-16T05:24:08.129Z,29.94
2023-07-16T05:26:34.777Z,29.87
2023-07-16T05:29:01.336Z,30.67
2023-07-16T05:31:28.011Z,30.45
2023-07-16T05:33:54.629Z,29.98
2023-07-16T05:36:21.378Z,29.54
2023-07-16T05:38:48.164Z,29.86
2023-07-16T05:41:14.928Z,29.98
2023-07-16T05:43:41.520Z,29.59
2023-07-16T05:46:08.315Z,29.31
2023-07-16T05:48:34.981Z,29.19
2023-07-16T05:51:01.559Z,29.06
2023-07-16T05:53:28.124Z,30.92
2023-07-16T05:55:54.964Z,29.73
2023-07-16T05:58:21.612Z,29.44
2023-07-16T06:00:48.253Z,30.50
2023-07-16T06:03:17.811Z,31.18
2023-07-16T06:05:44.546Z,32.60
2023-07-16T06:08:11.193Z,34.84
2023-07-16T06:10:37.898Z,37.99
2023-07-16T06:13:04.426Z,41.19
2023-07-16T06:15:31.025Z,40.62
2023-07-16T06:17:57.589Z,42.52
2023-07-16T06:20:24.199Z,42.07
2023-07-16T06:22:50.884Z,40.53
2023-07-16T06:25:17.477Z,36.55
2023-07-16T06:27:44.014Z,37.83
2023-07-16T06:30:10.744Z,36.17
2023-07-16T06:32:37.442Z,34.11
2023-07-16T06:35:04.141Z,35.51
2023-07-16T06:37:30.658Z,38.42
2023-07-16T06:39:57.195Z,38.76
2023-07-16T06:42:23.827Z,37.31
2023-07-16T06:44:50.369Z,35.75
2023-07-16T06:47:17.155Z,35.89
2023-07-16T06:49:43.888Z,36.86
2023-07-16T06:52:19.455Z,41.48
2023-07-16T06:54:46.242Z,40.16
2023-07-16T06:57:12.772Z,38.94
2023-07-16T06:59:39.417Z,41.63
2023-07-16T07:02:06.624Z,41.19
2023-07-16T07:04:33.245Z,40.89
2023-07-16T07:06:59.838Z,39.70
2023-07-16T07:09:26.510Z,41.34
2023-07-16T07:11:53.074Z,38.97
2023-07-16T07:14:19.664Z,40.71
2023-07-16T07:16:46.373Z,40.54
2023-07-16T07:19:12.938Z,41.48
2023-07-16T07:21:39.546Z,39.86
2023-07-16T07:24:06.281Z,39.81
2023-07-16T07:26:32.916Z,40.26
2023-07-16T07:28:59.466Z,39.68
2023-07-16T07:31:26.130Z,39.05
2023-07-16T07:33:54.728Z,39.46
2023-07-16T07:36:21.320Z,40.87
2023-07-16T07:38:48.053Z,40.61
2023-07-16T07:41:14.678Z,40.95
2023-07-16T07:43:41.352Z,39.21
2023-07-16T07:46:08.000Z,38.75
2023-07-16T07:48:38.110Z,39.60
2023-07-16T07:51:04.730Z,41.32
2023-07-16T07:53:31.341Z,41.47
2023-07-16T07:55:57.908Z,41.24
2023-07-16T07:58:24.567Z,41.11
2023-07-16T08:00:51.683Z,41.56
2023-07-16T08:03:19.113Z,41.82
2023-07-16T08:05:49.095Z,42.46
2023-07-16T08:08:16.478Z,41.15
2023-07-16T08:10:43.834Z,39.39
2023-07-16T08:13:10.744Z,40.15
2023-07-16T08:15:38.339Z,41.02
2023-07-16T08:18:05.567Z,40.55
2023-07-16T08:20:32.501Z,41.07
2023-07-16T08:22:59.475Z,40.52
2023-07-16T08:25:28.177Z,41.33
2023-07-16T08:27:55.002Z,41.03
2023-07-16T08:30:22.054Z,41.05
2023-07-16T08:32:49.034Z,39.97
2023-07-16T08:35:17.923Z,40.32
2023-07-16T08:37:44.934Z,39.99
2023-07-16T08:40:12.561Z,39.81
2023-07-16T08:42:39.978Z,39.50
2023-07-16T08:45:13.749Z,39.92
2023-07-16T08:47:41.033Z,40.08
2023-07-16T08:50:08.423Z,40.42
2023-07-16T08:52:35.375Z,40.40
2023-07-16T08:55:02.765Z,40.04
2023-07-16T08:57:30.578Z,38.51
2023-07-16T08:59:57.998Z,38.20
2023-07-16T09:02:25.293Z,39.61
2023-07-16T09:04:56.427Z,39.72
2023-07-16T09:07:24.065Z,39.51
2023-07-16T09:10:01.216Z,40.61
2023-07-16T09:12:29.047Z,40.27
2023-07-16T09:14:56.327Z,39.56
2023-07-16T09:17:24.726Z,39.08
2023-07-16T09:19:52.795Z,38.28
2023-07-16T09:22:20.438Z,38.54
2023-07-16T09:24:48.394Z,37.65
2023-07-16T09:27:15.506Z,38.23
2023-07-16T09:29:42.681Z,37.82
2023-07-16T09:32:09.832Z,37.72
2023-07-16T09:34:36.866Z,37.65
2023-07-16T09:37:06.792Z,38.42
2023-07-16T09:39:33.759Z,38.47
2023-07-16T09:42:00.986Z,38.28
2023-07-16T09:44:28.226Z,38.36
2023-07-16T09:46:55.881Z,38.34
2023-07-16T09:49:22.713Z,37.84
2023-07-16T09:51:50.862Z,37.00
2023-07-16T09:54:17.623Z,37.44
2023-07-16T09:56:49.784Z,37.12
2023-07-16T09:59:17.820Z,35.80
2023-07-16T10:01:45.188Z,36.37
2023-07-16T10:04:18.951Z,36.63
2023-07-16T10:06:53.892Z,36.24
2023-07-16T10:09:33.119Z,36.43
2023-07-16T10:12:11.966Z,35.80
2023-07-16T10:14:43.019Z,36.12
2023-07-16T10:17:13.521Z,35.30
2023-07-16T10:20:01.751Z,35.45
2023-07-16T10:22:35.533Z,34.19
2023-07-16T10:25:03.411Z,34.25
2023-07-16T10:27:34.114Z,34.73
2023-07-16T10:30:04.913Z,35.51
2023-07-16T10:32:32.774Z,33.94
2023-07-16T10:35:00.107Z,34.22
2023-07-16T10:37:27.522Z,34.12
2023-07-16T10:39:55.375Z,34.59
2023-07-16T10:42:24.968Z,33.95
2023-07-16T10:44:54.489Z,33.40
2023-07-16T10:47:24.163Z,33.59
2023-07-16T10:49:55.837Z,33.62
2023-07-16T10:52:24.736Z,34.26
2023-07-16T10:55:02.296Z,33.03
2023-07-16T10:57:30.955Z,34.21
2023-07-16T11:00:00.410Z,34.19
2023-07-16T11:02:28.913Z,33.13
2023-07-16T11:04:59.235Z,34.10
2023-07-16T11:07:28.472Z,33.38
2023-07-16T11:09:56.607Z,32.73
2023-07-16T11:12:25.631Z,33.52
2023-07-16T11:14:55.094Z,33.64
2023-07-16T11:17:26.791Z,32.39
2023-07-16T11:19:56.164Z,33.57
2023-07-16T11:22:31.379Z,33.88
2023-07-16T11:24:59.252Z,33.28
2023-07-16T11:27:28.635Z,33.20
2023-07-16T11:29:58.240Z,33.18
2023-07-16T11:32:33.257Z,33.76
2023-07-16T11:35:02.176Z,33.86
2023-07-16T11:37:31.591Z,34.26
2023-07-16T11:40:04.713Z,33.88
2023-07-16T11:42:34.505Z,33.13
2023-07-16T11:45:02.929Z,33.71
2023-07-16T11:47:31.162Z,32.43
2023-07-16T11:49:59.564Z,33.47
2023-07-16T11:52:29.136Z,33.08
2023-07-16T11:54:58.496Z,33.62
2023-07-16T11:57:25.912Z,32.01
2023-07-16T11:59:52.751Z,33.74
2023-07-16T12:02:19.918Z,33.81
2023-07-16T12:04:46.854Z,33.35
2023-07-16T12:07:13.942Z,32.67
2023-07-16T12:09:41.214Z,33.42
2023-07-16T12:12:08.140Z,33.13
2023-07-16T12:14:35.094Z,33.42
2023-07-16T12:17:02.049Z,33.59
2023-07-16T12:19:28.798Z,32.88
2023-07-16T12:21:56.794Z,32.84
2023-07-16T12:24:24.291Z,33.19
2023-07-16T12:26:51.371Z,33.25
2023-07-16T12:29:18.477Z,32.38
2023-07-16T12:31:45.248Z,32.83
2023-07-16T12:34:12.294Z,32.05
2023-07-16T12:36:39.749Z,32.08
2023-07-16T12:39:06.844Z,32.14
2023-07-16T12:41:33.808Z,32.00
2023-07-16T12:44:01.172Z,32.15
2023-07-16T12:46:28.316Z,32.06
2023-07-16T12:48:55.441Z,32.26
2023-07-16T12:51:22.469Z,32.66
2023-07-16T12:53:49.549Z,31.76
2023-07-16T12:56:16.581Z,31.92
2023-07-16T12:58:43.677Z,32.11
2023-07-16T13:01:10.590Z,32.40
2023-07-16T13:03:37.868Z,32.40
2023-07-16T13:06:05.117Z,31.57
2023-07-16T13:08:32.021Z,31.61
2023-07-16T13:10:58.959Z,32.31
2023-07-16T13:13:25.796Z,32.18
2023-07-16T13:15:52.769Z,32.24
2023-07-16T13:18:20.032Z,32.36
2023-07-16T13:20:47.086Z,32.15
2023-07-16T13:23:14.367Z,31.89
2023-07-16T13:25:41.625Z,32.83
2023-07-16T13:28:08.842Z,32.18
2023-07-16T13:30:36.075Z,31.82
2023-07-16T13:33:03.118Z,31.96
2023-07-16T13:35:30.839Z,32.18
2023-07-16T13:37:58.066Z,31.91
2023-07-16T13:40:25.335Z,30.58
2023-07-16T13:42:52.426Z,31.40
2023-07-16T13:45:19.737Z,32.37
2023-07-16T13:47:47.152Z,31.58
2023-07-16T13:50:14.342Z,31.50
2023-07-16T13:52:41.379Z,31.82
2023-07-16T13:55:08.586Z,31.33
2023-07-16T13:57:35.418Z,32.28
2023-07-16T14:00:02.655Z,31.52
2023-07-16T14:02:31.755Z,32.10
2023-07-16T14:04:58.595Z,32.47
2023-07-16T14:07:25.157Z,32.18
2023-07-16T14:09:51.755Z,31.34
2023-07-16T14:12:18.301Z,30.89
2023-07-16T14:14:44.881Z,31.24
2023-07-16T14:17:11.867Z,32.05
2023-07-16T14:19:38.574Z,30.62
2023-07-16T14:22:06.431Z,30.39
2023-07-16T14:24:33.151Z,31.47
2023-07-16T14:27:01.436Z,30.42
2023-07-16T14:29:29.266Z,31.07
2023-07-16T14:31:56.307Z,31.34
2023-07-16T14:34:22.929Z,31.94
2023-07-16T14:36:49.533Z,32.69
2023-07-16T14:39:16.503Z,32.77
2023-07-16T14:41:43.140Z,33.03
2023-07-16T14:44:09.762Z,32.46
2023-07-16T14:46:36.794Z,32.13
2023-07-16T14:49:03.349Z,31.47
2023-07-16T14:51:30.983Z,31.20
2023-07-16T14:53:57.550Z,31.66
2023-07-16T14:56:24.226Z,31.55
2023-07-16T14:58:50.827Z,31.42
2023-07-16T15:01:17.416Z,31.03
2023-07-16T15:03:44.298Z,31.50
2023-07-16T15:06:10.964Z,31.18
2023-07-16T15:08:37.750Z,31.08
2023-07-16T15:11:04.433Z,30.78
2023-07-16T15:13:31.121Z,31.16
2023-07-16T15:16:00.458Z,32.19
2023-07-16T15:18:28.288Z,31.61
2023-07-16T15:20:59.203Z,31.72
2023-07-16T15:23:27.241Z,32.16
2023-07-16T15:25:54.136Z,30.94
2023-07-16T15:28:20.770Z,31.67
2023-07-16T15:30:47.344Z,31.14
2023-07-16T15:33:14.027Z,31.26
2023-07-16T15:35:40.602Z,32.08
2023-07-16T15:38:07.198Z,31.41
2023-07-16T15:40:34.806Z,32.21
2023-07-16T15:43:01.848Z,32.76
2023-07-16T15:45:28.464Z,31.84
2023-07-16T15:47:58.329Z,31.26
2023-07-16T15:50:25.559Z,30.83
2023-07-16T15:52:52.201Z,31.82
2023-07-16T15:55:19.005Z,31.84
2023-07-16T15:57:45.642Z,32.40
2023-07-16T16:00:15.647Z,32.23
2023-07-16T16:02:43.058Z,31.60
2023-07-16T16:05:10.086Z,32.21
2023-07-16T16:07:36.965Z,32.97
2023-07-16T16:10:03.804Z,32.46
2023-07-16T16:12:30.366Z,32.55
2023-07-16T16:14:57.009Z,32.86
2023-07-16T16:17:23.592Z,33.08
2023-07-16T16:19:50.222Z,32.78
2023-07-16T16:22:16.806Z,33.41
2023-07-16T16:24:43.421Z,33.38
2023-07-16T16:27:10.116Z,32.88
2023-07-16T16:29:36.670Z,32.18
2023-07-16T16:32:03.349Z,33.29
2023-07-16T16:34:29.916Z,33.26
2023-07-16T16:36:56.642Z,33.08
2023-07-16T16:39:23.166Z,33.21
2023-07-16T16:41:49.730Z,33.16
2023-07-16T16:44:16.425Z,33.18
2023-07-16T16:46:43.120Z,33.29
2023-07-16T16:49:10.211Z,32.03
2023-07-16T16:51:36.818Z,32.02
2023-07-16T16:54:03.594Z,34.09
2023-07-16T16:56:30.115Z,33.51
2023-07-16T16:58:56.740Z,33.74
2023-07-16T17:01:23.349Z,33.73
2023-07-16T17:03:49.914Z,33.70
2023-07-16T17:06:16.517Z,32.68
2023-07-16T17:08:43.136Z,32.91
2023-07-16T17:11:09.712Z,33.42
2023-07-16T17:13:36.236Z,33.66
2023-07-16T17:16:02.804Z,33.87
2023-07-16T17:18:29.450Z,33.69
2023-07-16T17:20:58.000Z,34.11
2023-07-16T17:23:24.618Z,34.21
2023-07-16T17:25:51.291Z,33.98
2023-07-16T17:28:18.028Z,34.10
2023-07-16T17:30:44.615Z,33.57
2023-07-16T17:33:11.263Z,33.61
2023-07-16T17:35:41.096Z,33.98
2023-07-16T17:38:08.053Z,34.17
2023-07-16T17:40:34.651Z,34.75
2023-07-16T17:43:01.269Z,34.46
2023-07-16T17:45:27.845Z,35.05
2023-07-16T17:47:55.756Z,35.23
2023-07-16T17:50:22.475Z,35.16
2023-07-16T17:52:49.082Z,35.42
2023-07-16T17:55:15.672Z,35.29
2023-07-16T17:57:42.302Z,35.16
2023-07-16T18:00:24.120Z,35.33
2023-07-16T18:02:51.728Z,36.53
2023-07-16T18:05:18.457Z,37.52
2023-07-16T18:07:45.077Z,37.75
2023-07-16T18:10:11.760Z,37.64
2023-07-16T18:12:38.300Z,37.65
2023-07-16T18:15:05.926Z,38.22
2023-07-16T18:17:32.520Z,38.59
2023-07-16T18:19:59.639Z,39.46
2023-07-16T18:22:29.584Z,40.15
2023-07-16T18:24:57.898Z,40.11
2023-07-16T18:27:24.665Z,40.68
2023-07-16T18:29:51.256Z,41.33
2023-07-16T18:32:17.859Z,40.90
2023-07-16T18:34:44.469Z,39.89
2023-07-16T18:37:11.602Z,40.90
2023-07-16T18:39:38.390Z,41.96
2023-07-16T18:42:05.173Z,41.54
2023-07-16T18:44:31.847Z,41.47
2023-07-16T18:46:58.412Z,42.28
2023-07-16T18:49:24.936Z,42.45
2023-07-16T18:51:51.470Z,42.55
2023-07-16T18:54:18.167Z,43.00
2023-07-16T18:56:44.945Z,43.24
2023-07-16T18:59:11.468Z,43.92
2023-07-16T19:01:38.092Z,45.64
2023-07-16T19:04:05.094Z,45.20
2023-07-16T19:06:33.643Z,45.63
2023-07-16T19:09:00.264Z,46.05
2023-07-16T19:11:28.039Z,45.47
2023-07-16T19:13:57.013Z,45.15
2023-07-16T19:16:23.924Z,45.01
2023-07-16T19:18:50.763Z,44.75
2023-07-16T19:21:17.286Z,45.73
2023-07-16T19:23:43.831Z,46.69
2023-07-16T19:26:10.390Z,47.42
2023-07-16T19:28:36.956Z,47.95
2023-07-16T19:31:03.644Z,49.00
2023-07-16T19:33:31.172Z,48.75
2023-07-16T19:36:17.097Z,49.00
2023-07-16T19:38:44.042Z,48.87
2023-07-16T19:41:10.907Z,48.29
2023-07-16T19:43:37.732Z,49.07
2023-07-16T19:46:05.436Z,50.38
2023-07-16T19:48:35.254Z,50.41
2023-07-16T19:51:02.403Z,50.42
2023-07-16T19:53:28.960Z,50.59
2023-07-16T19:56:01.496Z,51.07
2023-07-16T19:58:28.314Z,50.88
2023-07-16T20:00:55.125Z,50.96
2023-07-16T20:03:22.025Z,51.20
2023-07-16T20:05:48.727Z,51.43
2023-07-16T20:08:16.862Z,51.60
2023-07-16T20:10:45.437Z,51.49
2023-07-16T20:13:11.993Z,52.43
2023-07-16T20:15:38.555Z,53.27
2023-07-16T20:18:06.922Z,52.88
2023-07-16T20:20:33.641Z,52.65
2023-07-16T20:23:00.200Z,53.07
2023-07-16T20:25:26.803Z,53.60
2023-07-16T20:27:57.048Z,53.71
2023-07-16T20:30:24.732Z,53.64
2023-07-16T20:32:51.937Z,54.04
2023-07-16T20:35:18.599Z,53.71
2023-07-16T20:37:45.273Z,53.28
2023-07-16T20:40:14.955Z,53.26
2023-07-16T20:42:42.455Z,53.29
2023-07-16T20:45:12.536Z,53.87
2023-07-16T20:47:39.294Z,53.50
2023-07-16T20:50:06.742Z,54.05
2023-07-16T20:52:33.285Z,53.37
2023-07-16T20:55:01.628Z,53.22
2023-07-16T20:57:28.475Z,53.85
2023-07-16T20:59:55.085Z,53.92
2023-07-16T21:02:21.759Z,53.59
2023-07-16T21:04:48.362Z,52.81
2023-07-16T21:07:14.992Z,52.75
2023-07-16T21:09:41.687Z,52.88
2023-07-16T21:12:08.428Z,53.57
2023-07-16T21:14:35.000Z,54.23
2023-07-16T21:17:01.606Z,55.23
2023-07-16T21:19:28.247Z,55.45
2023-07-16T21:21:54.844Z,56.58
2023-07-16T21:24:23.610Z,57.11
2023-07-16T21:26:50.166Z,57.29
2023-07-16T21:29:16.684Z,57.28
2023-07-16T21:31:43.275Z,57.66
2023-07-16T21:34:09.959Z,58.52
2023-07-16T21:36:36.577Z,58.97
2023-07-16T21:39:03.130Z,58.82
2023-07-16T21:41:29.661Z,59.36
2023-07-16T21:43:56.197Z,60.43
2023-07-16T21:46:22.772Z,61.29
2023-07-16T21:48:49.485Z,61.24
2023-07-16T21:51:17.332Z,61.09
2023-07-16T21:53:44.004Z,60.95
2023-07-16T21:56:10.596Z,60.73
2023-07-16T21:58:37.265Z,60.79
2023-07-16T22:01:03.788Z,60.40
2023-07-16T22:03:30.368Z,60.55
2023-07-16T22:05:57.046Z,61.66
2023-07-16T22:08:23.637Z,61.52
2023-07-16T22:10:50.597Z,61.13
2023-07-16T22:13:17.317Z,61.34
2023-07-16T22:15:44.082Z,61.89
2023-07-16T22:18:10.938Z,61.79
2023-07-16T22:20:38.083Z,62.10
2023-07-16T22:23:04.854Z,61.58
2023-07-16T22:25:31.999Z,61.45
2023-07-16T22:27:58.737Z,61.40
2023-07-16T22:30:25.583Z,61.14
2023-07-16T22:32:52.277Z,61.08
2023-07-16T22:35:18.978Z,61.84
2023-07-16T22:37:45.834Z,62.26
2023-07-16T22:40:12.808Z,61.82
2023-07-16T22:42:39.339Z,61.13
2023-07-16T22:45:06.103Z,61.04
2023-07-16T22:47:33.008Z,60.73
2023-07-16T22:49:59.759Z,60.70
2023-07-16T22:52:26.289Z,60.58
2023-07-16T22:54:53.009Z,60.42
2023-07-16T22:57:19.550Z,60.52
2023-07-16T22:59:46.095Z,60.79
2023-07-16T23:02:12.991Z,61.57
2023-07-16T23:04:39.633Z,61.86
2023-07-16T23:07:06.235Z,61.54
2023-07-16T23:09:32.883Z,62.08
2023-07-16T23:11:59.656Z,62.16
2023-07-16T23:14:26.372Z,62.50
2023-07-16T23:16:52.970Z,63.27
2023-07-16T23:19:19.639Z,63.47
2023-07-16T23:21:46.204Z,63.20
2023-07-16T23:24:12.780Z,64.22
2023-07-16T23:26:39.590Z,64.27
2023-07-16T23:29:06.936Z,65.26
2023-07-16T23:31:33.674Z,65.56
2023-07-16T23:34:00.365Z,65.79
2023-07-16T23:36:26.955Z,65.78
2023-07-16T23:38:53.582Z,66.23
2023-07-16T23:41:20.511Z,66.65
2023-07-16T23:43:47.372Z,66.96
2023-07-16T23:46:14.541Z,67.13
2023-07-16T23:48:41.176Z,68.00
2023-07-16T23:51:07.778Z,68.23
2023-07-16T23:53:34.390Z,67.76
2023-07-16T23:56:01.004Z,67.52
2023-07-16T23:58:28.023Z,67.35
